Airfield :
LOGIN :

Register | Disclaimer

   EN    FR    IT 

 










Legend :    VFR   Marginal VFR   IFR   Intensive IFR   Very Intensive IFR
Visi :
Ceiling :
>= 8 km
>= 3000ft
5 to 8 km
1000 to 3000 ft
1500m to 5 km
500 to 1000 ft
800 to 1500m
200 to 500 ft
< 800m
< 200 ft
Symbols :   Thunderstorms  Fog  Heavy snow  Heavy precipitations  Wind > 20 kt
SIGMETs :     Misc.  Thunderstorms  Icing  Turbulence  Mountain Waves  Volcanic Ashes







- Airport Elevation : 2697 ft
- IATA code : BLJ


DABT - Batna

CURRENT METAR :
  • 160000Z 17004KT CAVOK 20/14 Q1023

EXPIRED METARs :
  • 152300Z 04003KT CAVOK 22/13 Q1023
  • 152200Z 01004KT CAVOK 21/14 Q1023

TAF TAF DABT
Valid from the 16 at 00:00 until the 17 at 00:00 UTC


152300Z 1600/1624 22008KT 9999 FEW030 SCT200
PROB40
PROB40
TEMPO 1602/1612 FEW026TCU
PROB30
TEMPO 1603/1611 5000 -TSRA FEW023CB
BECMG 1609/1611 28011KT
PROB40
TEMPO 1612/1619 5000 -TSRA FEW023CB BKN030
BECMG 1620/1622 22008KT
No reported NOTAMs for that airfield.



MET'MAP, your aeronautical weather chart ! - Copyright ORBIFLY December 2007 - Disclaimer

ORBIFLY MET'MAP TEAM :

Programming & Development : Alexandra Zaïnal
Concept & Development : Baudouin d'Aumeries
Co-Development & Prog : Marc-Olivier Méhu
Technical & hardware support : Manuel Goepfert

Contact : metmap@orbifly.com




SOURCES & CREDITS :

   NOAA